Time;durP1;ratioP1;P1;durP2;ratioP2;P2;SDS_P1;SDS_P2;PMS_P1;PMS_P2;Temp;Humidity;BMP_temperature;BMP_pressure;BME280_temperature;BME280_humidity;BME280_pressure;Samples;Min_cycle;Max_cycle;Signal;HPM_P1;HPM_P2
2022/02/17 00:01:41;;;;;;;25.98;6.15;;;11.40;99.90;;;;;;4987584;28;25098;-71
2022/02/17 00:04:06;;;;;;;31.80;6.78;;;11.40;99.90;;;;;;4987277;28;25100;-71
2022/02/17 00:06:32;;;;;;;31.83;7.93;;;11.50;99.90;;;;;;5005421;28;25056;-72
2022/02/17 00:09:00;;;;;;;37.97;8.32;;;11.50;99.90;;;;;;5012143;28;25066;-72
2022/02/17 00:11:26;;;;;;;44.53;9.80;;;11.50;99.90;;;;;;5010094;28;25059;-74
2022/02/17 00:14:10;;;;;;;33.53;8.25;;;11.40;99.90;;;;;;5010406;28;25077;-71
2022/02/17 00:16:38;;;;;;;38.97;8.25;;;11.40;99.90;;;;;;4999557;28;25110;-70
2022/02/17 00:19:03;;;;;;;40.90;8.30;;;11.40;99.90;;;;;;5004888;28;25169;-72
2022/02/17 00:21:29;;;;;;;37.92;9.45;;;11.40;99.90;;;;;;5021192;28;25149;-72
2022/02/17 00:23:55;;;;;;;42.00;9.60;;;11.40;99.90;;;;;;5024445;28;25068;-71
2022/02/17 00:26:20;;;;;;;43.05;8.52;;;11.40;99.90;;;;;;5005925;28;25075;-73
2022/02/17 00:28:46;;;;;;;52.55;10.25;;;11.30;99.90;;;;;;5005549;28;25092;-69
2022/02/17 00:31:12;;;;;;;46.83;10.00;;;11.30;99.90;;;;;;4987914;28;25149;-70
2022/02/17 00:33:40;;;;;;;53.45;11.40;;;11.20;99.90;;;;;;5004984;28;25058;-70
2022/02/17 00:36:06;;;;;;;50.30;10.57;;;11.10;99.90;;;;;;5004416;28;25068;-68
2022/02/17 00:38:32;;;;;;;65.53;10.70;;;11.00;99.90;;;;;;5004632;28;25054;-70
2022/02/17 00:40:58;;;;;;;55.58;11.23;;;11.10;99.90;;;;;;5005368;28;25072;-67
2022/02/17 00:43:24;;;;;;;44.55;9.80;;;11.00;99.90;;;;;;5005793;28;25128;-67
2022/02/17 00:45:50;;;;;;;57.22;9.93;;;11.00;99.90;;;;;;5005447;28;25126;-70
2022/02/17 00:48:15;;;;;;;52.85;9.98;;;11.10;99.90;;;;;;5004397;28;25122;-71
2022/02/17 00:50:41;;;;;;;43.05;9.02;;;11.10;99.90;;;;;;5003870;28;25136;-71
2022/02/17 00:53:07;;;;;;;58.08;9.77;;;11.10;99.90;;;;;;5003389;28;25084;-71
2022/02/17 00:56:01;;;;;;;48.70;9.73;;;11.10;99.90;;;;;;5005230;28;25045;-70
2022/02/17 00:58:27;;;;;;;48.72;9.75;;;11.10;99.90;;;;;;4999782;28;25078;-70
2022/02/17 01:01:01;;;;;;;56.35;11.18;;;11.20;99.90;;;;;;5006305;28;25071;-69
2022/02/17 01:03:42;;;;;;;40.35;7.82;;;11.20;99.90;;;;;;5005470;28;25114;-71
2022/02/17 01:06:07;;;;;;;47.00;8.70;;;11.20;99.90;;;;;;5004478;28;25120;-70
2022/02/17 01:08:33;;;;;;;45.83;9.80;;;11.20;99.90;;;;;;5005426;28;25163;-68
2022/02/17 01:10:59;;;;;;;42.13;10.07;;;11.10;99.90;;;;;;5006470;28;25068;-70
2022/02/17 01:13:25;;;;;;;54.78;10.48;;;11.10;99.90;;;;;;5004801;28;25080;-70
2022/02/17 01:15:51;;;;;;;54.88;10.93;;;11.10;99.90;;;;;;5005689;28;25142;-68
2022/02/17 01:18:16;;;;;;;64.63;12.50;;;11.00;99.90;;;;;;5004832;28;25102;-74
2022/02/17 01:20:49;;;;;;;52.50;11.57;;;11.00;99.90;;;;;;5006131;28;25105;-71
2022/02/17 01:23:15;;;;;;;52.50;11.70;;;10.90;99.90;;;;;;4988131;28;25044;-71
2022/02/17 01:25:42;;;;;;;62.15;10.45;;;10.90;99.90;;;;;;5006351;28;25080;-71
2022/02/17 01:28:08;;;;;;;47.80;9.70;;;10.90;99.90;;;;;;5005541;28;25129;-70
2022/02/17 01:30:34;;;;;;;59.90;10.30;;;10.90;99.90;;;;;;5004784;28;25075;-69
2022/02/17 01:32:59;;;;;;;45.75;10.05;;;10.90;99.90;;;;;;5005292;28;25058;-69
2022/02/17 01:35:25;;;;;;;51.63;10.98;;;10.90;99.90;;;;;;4998127;28;25142;-68
2022/02/17 01:37:50;;;;;;;45.78;9.20;;;10.90;99.90;;;;;;5003831;28;25193;-69
2022/02/17 01:40:16;;;;;;;49.10;10.77;;;10.90;99.90;;;;;;4986839;28;25053;-70
2022/02/17 01:42:42;;;;;;;48.40;11.68;;;10.80;99.90;;;;;;5009097;28;25123;-69
2022/02/17 01:45:09;;;;;;;46.95;10.13;;;10.70;99.90;;;;;;5005121;28;25057;-68
2022/02/17 01:48:12;;;;;;;48.90;9.80;;;10.70;99.90;;;;;;5005465;28;25075;-68
2022/02/17 01:50:40;;;;;;;;;;;10.60;99.90;;;;;;5006261;28;25200;-71
2022/02/17 01:53:13;;;;;;;56.15;11.35;;;10.50;99.90;;;;;;5004710;28;25064;-72
2022/02/17 01:55:41;;;;;;;55.33;13.40;;;10.50;99.90;;;;;;5004553;28;25080;-73
2022/02/17 01:58:07;;;;;;;55.70;12.10;;;10.50;99.90;;;;;;5008027;28;25071;-70
2022/02/17 02:00:33;;;;;;;58.25;11.00;;;10.40;99.90;;;;;;5008458;28;25105;-67
2022/02/17 02:02:59;;;;;;;54.42;11.52;;;10.40;99.90;;;;;;4989912;28;25103;-73
2022/02/17 02:05:25;;;;;;;53.20;11.23;;;10.40;99.90;;;;;;5008433;28;25074;-70
2022/02/17 02:07:51;;;;;;;57.80;11.80;;;10.40;99.90;;;;;;5008848;28;25084;-70
2022/02/17 02:10:17;;;;;;;46.83;12.02;;;10.40;99.90;;;;;;4982305;28;25080;-71
2022/02/17 02:12:43;;;;;;;44.53;8.73;;;10.40;99.90;;;;;;4994569;28;25076;-70
2022/02/17 02:15:09;;;;;;;52.10;8.38;;;10.30;99.90;;;;;;5009793;28;25078;-69
2022/02/17 02:17:35;;;;;;;45.63;9.73;;;10.30;99.90;;;;;;5008142;28;25092;-70
2022/02/17 02:20:02;;;;;;;52.88;9.70;;;10.30;99.90;;;;;;5007773;28;25096;-71
2022/02/17 02:22:30;;;;;;;47.92;9.45;;;10.30;99.90;;;;;;5008179;28;25049;-73
2022/02/17 02:24:58;;;;;;;39.90;9.63;;;10.30;99.90;;;;;;5008580;28;25152;-70
2022/02/17 02:27:24;;;;;;;46.88;8.55;;;10.30;99.90;;;;;;5009225;28;25102;-69
2022/02/17 02:29:50;;;;;;;39.65;8.63;;;10.20;99.90;;;;;;4990877;28;25051;-70
2022/02/17 02:32:16;;;;;;;47.75;10.18;;;10.20;99.90;;;;;;4989978;28;25131;-72
2022/02/17 02:34:42;;;;;;;39.17;7.78;;;10.20;99.90;;;;;;5006652;28;25066;-69
2022/02/17 02:37:13;;;;;;;37.78;8.73;;;10.20;99.90;;;;;;5006821;28;25225;-69
2022/02/17 02:39:39;;;;;;;48.85;8.38;;;10.10;99.90;;;;;;5007652;28;25060;-69
2022/02/17 02:42:06;;;;;;;62.70;9.50;;;10.10;99.90;;;;;;5007201;28;25148;-70
2022/02/17 02:44:32;;;;;;;54.85;11.07;;;10.00;99.90;;;;;;5007314;28;25061;-71
2022/02/17 02:46:58;;;;;;;43.25;10.65;;;10.00;99.90;;;;;;5006797;28;25072;-70
2022/02/17 02:49:24;;;;;;;50.13;9.75;;;10.00;99.90;;;;;;4989569;28;25076;-70
2022/02/17 02:51:49;;;;;;;45.65;9.57;;;9.90;99.90;;;;;;5006579;28;25084;-70
2022/02/17 02:54:15;;;;;;;39.28;8.70;;;10.00;99.90;;;;;;5007580;28;25105;-70
2022/02/17 02:56:41;;;;;;;36.55;7.03;;;10.00;99.90;;;;;;5019488;28;25086;-70
2022/02/17 02:59:08;;;;;;;41.47;8.45;;;10.00;99.90;;;;;;5018263;28;25084;-70
2022/02/17 03:01:33;;;;;;;35.90;7.45;;;10.10;99.50;;;;;;5017108;28;25074;-71
2022/02/17 03:03:59;;;;;;;34.88;8.55;;;10.10;98.90;;;;;;5015562;28;25099;-70
2022/02/17 03:06:28;;;;;;;31.60;7.47;;;10.10;98.70;;;;;;5008977;28;25051;-69
2022/02/17 03:08:54;;;;;;;29.88;6.95;;;10.10;98.70;;;;;;5016710;28;25079;-72
2022/02/17 03:11:20;;;;;;;35.95;7.22;;;10.10;98.70;;;;;;5022725;28;25058;-71
2022/02/17 03:13:46;;;;;;;41.50;8.82;;;10.10;98.70;;;;;;5029631;28;25054;-69
2022/02/17 03:16:11;;;;;;;32.08;7.55;;;10.10;98.90;;;;;;5040544;28;25094;-72
2022/02/17 03:18:40;;;;;;;29.58;6.85;;;10.10;99.00;;;;;;5025130;28;25048;-69
2022/02/17 03:21:06;;;;;;;36.67;6.78;;;10.10;99.40;;;;;;5017102;28;25056;-66
2022/02/17 03:23:46;;;;;;;41.03;8.18;;;10.10;99.90;;;;;;5011720;28;25083;-68
2022/02/17 03:26:12;;;;;;;49.22;11.38;;;10.00;99.90;;;;;;5011229;28;25078;-69
2022/02/17 03:28:52;;;;;;;46.92;10.60;;;10.00;99.90;;;;;;5011121;28;25077;-70
2022/02/17 03:31:18;;;;;;;54.97;11.25;;;9.90;99.90;;;;;;5007773;28;25060;-68
2022/02/17 03:33:43;;;;;;;56.33;10.18;;;9.90;99.90;;;;;;4985492;28;25063;-70
2022/02/17 03:36:09;;;;;;;50.72;9.32;;;9.90;99.90;;;;;;5005528;28;25063;-71
2022/02/17 03:38:35;;;;;;;47.45;10.68;;;9.90;99.90;;;;;;5008156;28;25081;-67
2022/02/17 03:41:00;;;;;;;57.38;11.98;;;9.80;99.90;;;;;;5010847;28;25059;-70
2022/02/17 03:43:29;;;;;;;53.08;11.23;;;9.80;99.90;;;;;;5010230;28;25073;-67
2022/02/17 03:45:55;;;;;;;59.72;10.90;;;9.80;99.90;;;;;;5008667;28;25136;-67
2022/02/17 03:48:20;;;;;;;66.45;12.43;;;9.80;99.90;;;;;;5007132;28;25110;-71
2022/02/17 03:50:46;;;;;;;55.88;10.98;;;9.80;99.90;;;;;;5010875;28;25127;-69
2022/02/17 03:53:11;;;;;;;73.22;13.20;;;9.80;99.90;;;;;;5010707;28;25092;-71
2022/02/17 03:55:37;;;;;;;62.35;11.50;;;9.80;99.90;;;;;;5006980;28;25125;-69
2022/02/17 03:58:03;;;;;;;68.65;12.00;;;9.80;99.90;;;;;;5005990;28;25169;-69
2022/02/17 04:00:28;;;;;;;52.13;10.77;;;9.80;99.90;;;;;;5005390;28;25088;-68
2022/02/17 04:02:54;;;;;;;62.00;13.38;;;9.70;99.90;;;;;;5005279;28;25067;-70
2022/02/17 04:05:20;;;;;;;64.60;12.55;;;9.70;99.90;;;;;;5006198;28;25084;-71
2022/02/17 04:07:45;;;;;;;63.78;10.82;;;9.70;99.90;;;;;;5006192;28;25089;-69
2022/02/17 04:10:11;;;;;;;58.95;13.13;;;9.70;99.90;;;;;;4988756;28;25069;-71
2022/02/17 04:12:37;;;;;;;69.85;13.88;;;9.70;99.90;;;;;;4987093;28;25075;-68
2022/02/17 04:15:03;;;;;;;61.95;11.13;;;9.60;99.90;;;;;;5005291;28;25139;-71
2022/02/17 04:17:28;;;;;;;57.63;10.98;;;9.60;99.90;;;;;;5005806;28;25147;-71
2022/02/17 04:19:54;;;;;;;62.80;14.25;;;9.60;99.90;;;;;;5004417;28;25123;-70
2022/02/17 04:22:19;;;;;;;60.05;11.98;;;9.60;99.90;;;;;;5007926;28;25085;-70
2022/02/17 04:24:45;;;;;;;61.75;12.23;;;9.60;99.90;;;;;;5006816;28;25087;-70
2022/02/17 04:27:11;;;;;;;62.63;13.02;;;9.70;99.90;;;;;;4994473;28;25108;-70
2022/02/17 04:29:36;;;;;;;47.95;10.50;;;9.70;99.90;;;;;;4995139;28;25074;-70
2022/02/17 04:32:02;;;;;;;55.75;11.43;;;9.70;99.90;;;;;;4994709;28;25071;-71
2022/02/17 04:34:28;;;;;;;60.17;12.85;;;9.70;99.90;;;;;;4991500;28;25098;-68
2022/02/17 04:37:23;;;;;;;51.35;12.27;;;9.70;99.90;;;;;;4997118;28;25113;-72
2022/02/17 04:39:49;;;;;;;66.57;12.90;;;9.60;99.90;;;;;;4991697;28;25068;-69
2022/02/17 04:42:20;;;;;;;52.08;11.38;;;9.70;99.90;;;;;;4996030;28;25061;-71
2022/02/17 04:44:47;;;;;;;61.85;13.50;;;9.70;99.90;;;;;;5002376;28;25059;-69
2022/02/17 04:47:13;;;;;;;60.47;11.82;;;9.60;99.90;;;;;;4969769;28;25100;-72
2022/02/17 04:49:39;;;;;;;52.72;10.95;;;9.70;99.90;;;;;;4995213;28;25104;-68
2022/02/17 04:52:05;;;;;;;49.50;10.65;;;9.70;99.90;;;;;;5009420;28;25064;-67
2022/02/17 04:54:31;;;;;;;74.05;15.30;;;9.70;99.90;;;;;;5006189;28;25063;-69
2022/02/17 04:56:57;;;;;;;61.40;12.02;;;9.70;99.90;;;;;;5017586;28;25088;-72
2022/02/17 04:59:22;;;;;;;56.28;11.65;;;9.70;99.90;;;;;;5012420;28;25107;-69
2022/02/17 05:01:48;;;;;;;57.20;12.23;;;9.80;99.90;;;;;;4999950;28;25140;-70
2022/02/17 05:04:13;;;;;;;65.45;12.80;;;9.80;99.90;;;;;;5003463;28;25050;-69
2022/02/17 05:06:39;;;;;;;55.85;11.40;;;9.80;99.90;;;;;;5027757;28;25137;-69
2022/02/17 05:09:04;;;;;;;66.40;12.85;;;9.80;99.90;;;;;;5025542;28;25055;-69
2022/02/17 05:11:33;;;;;;;48.60;10.52;;;9.70;99.90;;;;;;5018846;28;25076;-69
2022/02/17 05:13:59;;;;;;;52.80;11.65;;;9.80;99.80;;;;;;5004837;28;25088;-69
2022/02/17 05:16:25;;;;;;;57.85;10.60;;;9.80;99.30;;;;;;5000863;28;25142;-70
2022/02/17 05:18:51;;;;;;;55.35;12.05;;;9.80;99.20;;;;;;5006038;28;25038;-69
2022/02/17 05:21:17;;;;;;;54.88;10.35;;;9.80;99.10;;;;;;5003495;28;25059;-70
2022/02/17 05:23:42;;;;;;;54.80;10.75;;;9.70;99.00;;;;;;5002584;28;25082;-69
2022/02/17 05:26:08;;;;;;;52.28;11.35;;;9.70;99.10;;;;;;4997638;28;25162;-72
2022/02/17 05:28:34;;;;;;;44.20;10.02;;;9.70;98.90;;;;;;5000856;28;25066;-70
2022/02/17 05:30:59;;;;;;;68.65;14.57;;;9.70;99.10;;;;;;5002603;28;25056;-71
2022/02/17 05:33:25;;;;;;;67.70;12.02;;;9.70;99.10;;;;;;4997067;28;25101;-71
2022/02/17 05:35:52;;;;;;;52.92;10.57;;;9.70;99.30;;;;;;5008254;28;25135;-69
2022/02/17 05:38:34;;;;;;;49.60;10.05;;;9.60;99.10;;;;;;5006799;28;25227;-71
2022/02/17 05:41:00;;;;;;;51.30;10.88;;;9.60;98.70;;;;;;5000189;28;25097;-69
2022/02/17 05:43:25;;;;;;;46.17;9.32;;;9.60;98.20;;;;;;4998442;28;25093;-69
2022/02/17 05:45:51;;;;;;;44.70;9.23;;;9.60;98.40;;;;;;4997904;28;25104;-69
2022/02/17 05:48:16;;;;;;;51.25;10.50;;;9.50;98.50;;;;;;4994794;28;25060;-70
2022/02/17 05:50:42;;;;;;;45.63;11.05;;;9.50;98.50;;;;;;4992455;28;25055;-71
2022/02/17 05:53:07;;;;;;;51.22;9.38;;;9.40;98.80;;;;;;4992259;28;25081;-68
2022/02/17 05:55:33;;;;;;;50.00;11.23;;;9.40;99.00;;;;;;4996938;28;25098;-70
2022/02/17 05:57:59;;;;;;;54.08;10.48;;;9.30;99.10;;;;;;4994202;28;25056;-69
2022/02/17 06:00:24;;;;;;;48.72;9.32;;;9.30;99.10;;;;;;4997987;28;25109;-70
2022/02/17 06:02:51;;;;;;;44.83;9.93;;;9.20;99.20;;;;;;4995994;28;25069;-70
2022/02/17 06:05:16;;;;;;;56.15;10.77;;;9.30;98.60;;;;;;4987315;28;25059;-69
2022/02/17 06:07:45;;;;;;;48.83;10.07;;;9.30;98.90;;;;;;4988916;28;25056;-69
2022/02/17 06:10:11;;;;;;;44.50;9.18;;;9.20;98.70;;;;;;5007773;28;25078;-69
2022/02/17 06:12:44;;;;;;;42.33;8.35;;;9.30;98.20;;;;;;4987663;28;25073;-67
2022/02/17 06:15:12;;;;;;;47.22;10.13;;;9.20;98.40;;;;;;4986268;28;25052;-68
2022/02/17 06:17:38;;;;;;;57.25;11.30;;;9.20;98.90;;;;;;5003224;28;25073;-68
2022/02/17 06:20:05;;;;;;;38.03;7.95;;;9.20;98.70;;;;;;4982293;28;25053;-67
2022/02/17 06:22:31;;;;;;;57.80;10.13;;;9.20;98.80;;;;;;4998237;28;25146;-68
2022/02/17 06:24:56;;;;;;;37.08;7.47;;;9.10;99.00;;;;;;4990727;28;25105;-72
2022/02/17 06:27:22;;;;;;;43.10;7.32;;;9.10;97.70;;;;;;4994649;28;25138;-67
2022/02/17 06:29:48;;;;;;;37.90;6.93;;;9.10;97.80;;;;;;4988863;28;25166;-70
2022/02/17 06:32:14;;;;;;;32.50;6.18;;;9.10;97.20;;;;;;4995901;28;25145;-68
2022/02/17 06:34:42;;;;;;;30.58;7.18;;;9.10;97.10;;;;;;4994287;28;25096;-70
2022/02/17 06:37:08;;;;;;;27.67;6.90;;;9.10;97.40;;;;;;4995271;28;25054;-70
2022/02/17 06:39:33;;;;;;;32.88;6.30;;;9.10;97.40;;;;;;4975077;28;25052;-69
2022/02/17 06:41:59;;;;;;;41.88;8.52;;;9.10;98.00;;;;;;5010182;28;25101;-69
2022/02/17 06:44:25;;;;;;;43.45;9.80;;;9.10;98.30;;;;;;5024257;28;25160;-71
2022/02/17 06:46:51;;;;;;;42.38;8.70;;;9.10;98.50;;;;;;5027455;28;25102;-71
2022/02/17 06:49:17;;;;;;;42.65;8.88;;;9.10;98.20;;;;;;5026599;28;25053;-69
2022/02/17 06:51:45;;;;;;;30.67;7.03;;;9.10;97.90;;;;;;5026336;28;25129;-71
2022/02/17 06:54:11;;;;;;;40.70;8.57;;;9.00;97.90;;;;;;5024129;28;25065;-70
2022/02/17 06:56:36;;;;;;;35.63;7.82;;;9.00;98.10;;;;;;5025250;28;25114;-69
2022/02/17 06:59:03;;;;;;;29.85;6.50;;;9.10;97.40;;;;;;5026087;28;25142;-70
2022/02/17 07:01:29;;;;;;;20.48;6.07;;;9.10;97.20;;;;;;5027141;28;25068;-68
2022/02/17 07:03:55;;;;;;;25.73;5.40;;;9.00;96.80;;;;;;5026194;28;25070;-70
2022/02/17 07:06:23;;;;;;;25.10;4.40;;;9.10;95.50;;;;;;5009528;28;25064;-68
2022/02/17 07:08:49;;;;;;;26.92;5.47;;;9.10;95.30;;;;;;5010780;28;25068;-68
2022/02/17 07:11:15;;;;;;;30.70;5.68;;;9.10;95.80;;;;;;5011375;28;25070;-71
2022/02/17 07:13:40;;;;;;;23.90;4.50;;;9.00;96.00;;;;;;5031016;28;25080;-70
2022/02/17 07:16:06;;;;;;;28.85;5.22;;;9.00;95.80;;;;;;5032248;28;25056;-69
2022/02/17 07:18:31;;;;;;;24.60;4.50;;;9.00;95.90;;;;;;5035183;28;25059;-69
2022/02/17 07:20:57;;;;;;;24.65;5.15;;;8.90;95.60;;;;;;5039886;28;25055;-69
2022/02/17 07:23:24;;;;;;;22.50;4.68;;;9.00;95.30;;;;;;5010814;28;25138;-70
2022/02/17 07:25:51;;;;;;;23.02;5.05;;;8.90;95.60;;;;;;5029211;28;25066;-70
2022/02/17 07:28:21;;;;;;;35.30;6.80;;;8.90;96.00;;;;;;5030849;28;25068;-68
2022/02/17 07:30:47;;;;;;;30.55;5.75;;;8.80;96.20;;;;;;5035650;28;25052;-70
2022/02/17 07:33:13;;;;;;;31.15;6.32;;;8.90;96.10;;;;;;4999808;28;25085;-70
2022/02/17 07:35:40;;;;;;;22.17;4.68;;;9.00;95.80;;;;;;4996974;28;25055;-70
2022/02/17 07:38:07;;;;;;;26.50;6.22;;;8.90;96.00;;;;;;4980595;28;25051;-71
2022/02/17 07:40:33;;;;;;;26.85;5.40;;;8.90;96.00;;;;;;4994814;28;25073;-72
2022/02/17 07:42:58;;;;;;;29.92;6.13;;;8.90;96.50;;;;;;5005846;28;25061;-71
2022/02/17 07:45:24;;;;;;;24.23;5.80;;;8.90;96.90;;;;;;5015061;28;25100;-67
2022/02/17 07:47:52;;;;;;;34.85;6.82;;;8.90;97.10;;;;;;5006422;28;25089;-68
2022/02/17 07:50:20;;;;;;;39.28;7.88;;;8.90;97.50;;;;;;4987663;28;25056;-69
2022/02/17 07:52:46;;;;;;;29.10;5.97;;;8.80;97.20;;;;;;4987817;28;25134;-67
2022/02/17 07:55:13;;;;;;;33.08;7.72;;;8.80;97.10;;;;;;5004825;28;25071;-68
2022/02/17 07:57:39;;;;;;;27.92;5.65;;;8.80;95.80;;;;;;5005870;28;25047;-69
2022/02/17 08:00:07;;;;;;;29.80;5.90;;;8.90;94.60;;;;;;5004820;28;25097;-68
2022/02/17 08:02:33;;;;;;;25.52;5.30;;;9.00;94.00;;;;;;5005550;28;25055;-67
2022/02/17 08:05:05;;;;;;;26.10;4.93;;;9.00;93.70;;;;;;5005962;28;25094;-69
2022/02/17 08:07:31;;;;;;;20.70;4.03;;;9.00;93.50;;;;;;4987440;28;25066;-69
2022/02/17 08:09:57;;;;;;;19.48;4.10;;;9.00;93.50;;;;;;5007128;28;25051;-68
2022/02/17 08:12:24;;;;;;;25.80;4.45;;;9.00;93.30;;;;;;5006044;28;25046;-69
2022/02/17 08:14:49;;;;;;;18.83;4.57;;;9.00;93.50;;;;;;5005264;28;25167;-70
2022/02/17 08:17:17;;;;;;;35.08;6.22;;;9.00;93.90;;;;;;5006024;28;25074;-70
2022/02/17 08:19:49;;;;;;;26.52;5.20;;;9.00;94.20;;;;;;4989637;28;25053;-70
2022/02/17 08:22:14;;;;;;;25.95;5.18;;;9.00;94.60;;;;;;5010566;28;25074;-70
2022/02/17 08:24:40;;;;;;;32.55;5.65;;;9.00;94.70;;;;;;4993070;28;25093;-71
2022/02/17 08:27:05;;;;;;;25.98;6.22;;;9.00;95.00;;;;;;5009116;28;25114;-68
2022/02/17 08:29:31;;;;;;;26.58;6.82;;;9.00;95.40;;;;;;5023789;28;25091;-69
2022/02/17 08:31:57;;;;;;;26.40;5.68;;;9.00;95.70;;;;;;5016661;28;25100;-70
2022/02/17 08:34:23;;;;;;;27.52;5.85;;;9.00;96.10;;;;;;5000120;28;25151;-70
2022/02/17 08:36:52;;;;;;;26.00;4.63;;;9.00;95.30;;;;;;5017078;28;25114;-74
2022/02/17 08:39:18;;;;;;;24.02;5.63;;;9.10;94.30;;;;;;4992359;28;25135;-69
2022/02/17 08:41:44;;;;;;;31.20;7.00;;;9.20;94.70;;;;;;5005892;28;25127;-67
2022/02/17 08:44:13;;;;;;;33.92;6.15;;;9.20;94.90;;;;;;4989053;28;25131;-69
2022/02/17 08:46:39;;;;;;;29.65;5.80;;;9.30;95.00;;;;;;5008006;28;25083;-70
2022/02/17 08:49:06;;;;;;;22.55;5.28;;;9.30;94.90;;;;;;5007008;28;25056;-72
2022/02/17 08:51:32;;;;;;;23.58;4.95;;;9.30;94.40;;;;;;5004485;28;25058;-71
2022/02/17 08:53:57;;;;;;;25.52;5.10;;;9.30;93.20;;;;;;5004703;28;25104;-68
2022/02/17 08:56:23;;;;;;;19.02;5.50;;;9.40;93.20;;;;;;5004352;28;25095;-70
2022/02/17 08:58:50;;;;;;;30.92;6.32;;;9.40;93.20;;;;;;5004210;28;25079;-71
2022/02/17 09:01:15;;;;;;;31.15;5.20;;;9.40;93.30;;;;;;4985972;28;25059;-71
2022/02/17 09:03:41;;;;;;;19.58;4.05;;;9.50;93.40;;;;;;5004580;28;25150;-70
2022/02/17 09:06:07;;;;;;;21.35;4.88;;;9.50;93.20;;;;;;5007137;28;25091;-71
2022/02/17 09:08:33;;;;;;;24.88;5.07;;;9.50;92.70;;;;;;5010465;28;25101;-67
2022/02/17 09:10:59;;;;;;;15.90;4.55;;;9.60;92.60;;;;;;5013720;28;25089;-73
2022/02/17 09:13:24;;;;;;;21.25;4.07;;;9.70;92.50;;;;;;4998350;28;25045;-70
2022/02/17 09:15:51;;;;;;;22.65;4.07;;;9.70;92.40;;;;;;5019352;28;25144;-71
2022/02/17 09:18:17;;;;;;;17.05;3.78;;;9.80;92.30;;;;;;5027184;28;25075;-74
2022/02/17 09:20:43;;;;;;;20.17;4.00;;;9.70;91.40;;;;;;5012917;28;25115;-71
2022/02/17 09:23:11;;;;;;;17.25;4.13;;;9.60;90.80;;;;;;5016943;28;25055;-73
2022/02/17 09:25:37;;;;;;;16.27;3.25;;;9.60;90.50;;;;;;5000307;28;25101;-71
2022/02/17 09:28:03;;;;;;;17.45;3.50;;;9.60;90.90;;;;;;5019672;28;25058;-69
2022/02/17 09:30:29;;;;;;;19.30;3.95;;;9.60;90.40;;;;;;4998994;28;25050;-70
2022/02/17 09:33:07;;;;;;;16.02;3.75;;;9.60;90.30;;;;;;5018787;28;25104;-67
2022/02/17 09:35:32;;;;;;;18.77;3.72;;;9.70;90.90;;;;;;5017638;28;25084;-69
2022/02/17 09:37:58;;;;;;;15.45;3.45;;;9.70;90.90;;;;;;5017187;28;25086;-70
2022/02/17 09:40:24;;;;;;;25.35;5.10;;;9.70;90.70;;;;;;5016082;28;25095;-70
2022/02/17 09:42:49;;;;;;;16.65;4.05;;;9.80;90.80;;;;;;5015698;28;25048;-71
2022/02/17 09:45:24;;;;;;;17.20;4.00;;;9.70;90.70;;;;;;5014425;28;25063;-69
2022/02/17 09:47:50;;;;;;;19.90;4.90;;;9.80;90.40;;;;;;5010456;28;25160;-72
2022/02/17 09:50:16;;;;;;;25.70;4.55;;;9.80;90.70;;;;;;5013131;28;25104;-71
2022/02/17 09:52:44;;;;;;;24.40;4.85;;;9.80;91.00;;;;;;5022752;23;25061;-63
2022/02/17 09:55:12;;;;;;;16.85;3.95;;;10.00;90.80;;;;;;5029295;28;25056;-61
2022/02/17 09:57:38;;;;;;;14.45;4.13;;;9.90;89.70;;;;;;5028721;28;25104;-61
2022/02/17 10:00:09;;;;;;;19.75;3.83;;;9.90;89.90;;;;;;5012924;28;25067;-63
2022/02/17 10:02:35;;;;;;;16.33;3.83;;;9.90;89.70;;;;;;4991599;28;25081;-62
2022/02/17 10:05:04;;;;;;;25.58;4.53;;;9.90;89.80;;;;;;5009367;28;25109;-60
2022/02/17 10:07:30;;;;;;;17.25;4.13;;;9.80;89.50;;;;;;5016342;22;25069;-71
2022/02/17 10:10:06;;;;;;;22.45;3.92;;;9.80;88.30;;;;;;4989313;28;25118;-72
2022/02/17 10:13:04;;;;;;;18.45;3.28;;;9.80;87.30;;;;;;5006731;28;25073;-70
2022/02/17 10:15:37;;;;;;;18.05;3.33;;;9.80;88.10;;;;;;5008773;28;25113;-71
2022/02/17 10:18:16;;;;;;;25.27;3.65;;;9.80;87.60;;;;;;5009288;28;25113;-72
2022/02/17 10:21:06;;;;;;;22.73;3.90;;;10.00;89.00;;;;;;5016222;28;25147;-72
2022/02/17 10:23:37;;;;;;;23.10;3.83;;;10.10;89.40;;;;;;5017942;28;25166;-68
2022/02/17 10:26:12;;;;;;;15.05;3.30;;;10.20;90.20;;;;;;5011176;28;25084;-69
2022/02/17 10:28:51;;;;;;;18.10;3.60;;;10.10;90.20;;;;;;5010797;28;25125;-68
2022/02/17 10:31:22;;;;;;;18.10;3.88;;;10.30;90.90;;;;;;5010054;28;25137;-70
2022/02/17 10:33:52;;;;;;;23.92;4.75;;;10.40;90.60;;;;;;5008113;28;25085;-69
2022/02/17 10:36:48;;;;;;;18.65;3.28;;;10.30;91.20;;;;;;4990482;28;25056;-70
2022/02/17 10:39:28;;;;;;;24.98;4.10;;;10.40;91.50;;;;;;5008180;28;25069;-69
2022/02/17 10:42:01;;;;;;;18.33;3.35;;;10.50;91.30;;;;;;5002846;28;25180;-70
2022/02/17 10:44:33;;;;;;;20.02;4.25;;;10.50;91.30;;;;;;4988395;28;25061;-71
2022/02/17 10:47:18;;;;;;;20.85;4.20;;;10.60;91.10;;;;;;4971005;28;25092;-70
2022/02/17 10:49:52;;;;;;;16.15;3.22;;;10.50;91.40;;;;;;4988476;28;25062;-71
2022/02/17 10:52:48;;;;;;;27.52;4.65;;;10.50;91.30;;;;;;4988400;28;25061;-68
2022/02/17 10:55:22;;;;;;;19.80;5.32;;;10.60;91.30;;;;;;4969634;28;25057;-68
2022/02/17 10:57:49;;;;;;;21.35;4.03;;;10.70;91.10;;;;;;4987763;28;25152;-70
2022/02/17 11:00:15;;;;;;;24.85;5.00;;;10.70;90.50;;;;;;4987559;28;25124;-69
2022/02/17 11:02:45;;;;;;;22.77;4.53;;;10.80;90.80;;;;;;4991948;28;25077;-71
2022/02/17 11:05:19;;;;;;;17.13;3.90;;;11.00;91.20;;;;;;4993209;28;25071;-70
2022/02/17 11:07:46;;;;;;;29.40;5.07;;;10.90;90.60;;;;;;4974592;28;25049;-72
2022/02/17 11:10:13;;;;;;;22.83;5.15;;;10.90;90.40;;;;;;4990354;28;25133;-70
2022/02/17 11:12:42;;;;;;;24.33;5.38;;;10.80;90.60;;;;;;4993338;28;25057;-71
2022/02/17 11:15:09;;;;;;;25.45;4.53;;;10.80;90.40;;;;;;4992629;28;25073;-71
2022/02/17 11:17:38;;;;;;;16.50;4.18;;;10.80;90.90;;;;;;4990709;28;25065;-70
2022/02/17 11:20:17;;;;;;;19.40;4.32;;;10.90;90.00;;;;;;4981121;28;25066;-72
2022/02/17 11:22:47;;;;;;;24.70;5.60;;;11.00;89.80;;;;;;5021585;28;25064;-71
2022/02/17 11:25:13;;;;;;;20.35;4.97;;;11.00;89.60;;;;;;5007048;28;25090;-73
2022/02/17 11:27:59;;;;;;;17.88;3.92;;;11.10;88.90;;;;;;5007899;28;25078;-73
2022/02/17 11:30:30;;;;;;;22.25;4.72;;;11.00;88.70;;;;;;5000612;28;25112;-70
2022/02/17 11:33:28;;;;;;;19.05;4.13;;;11.10;88.80;;;;;;4979035;28;25047;-70
2022/02/17 11:36:25;;;;;;;16.70;4.18;;;10.80;89.30;;;;;;4972403;28;25136;-71
2022/02/17 11:38:57;;;;;;;21.70;4.05;;;10.80;89.40;;;;;;4990593;28;25112;-69
2022/02/17 11:41:27;;;;;;;15.60;4.13;;;10.80;89.20;;;;;;4989099;28;25068;-71
2022/02/17 11:44:06;;;;;;;22.60;5.60;;;10.90;88.80;;;;;;4985231;28;25071;-69
2022/02/17 11:46:40;;;;;;;20.98;4.75;;;11.00;88.30;;;;;;4985687;28;25103;-72
2022/02/17 11:49:11;;;;;;;21.15;5.07;;;10.90;89.10;;;;;;4985909;28;25098;-70
2022/02/17 11:51:37;;;;;;;21.50;4.38;;;11.30;88.90;;;;;;4984666;28;25151;-70
2022/02/17 11:54:19;;;;;;;25.00;4.55;;;11.40;88.90;;;;;;4985158;28;25100;-69
2022/02/17 11:56:52;;;;;;;19.97;4.77;;;11.90;89.20;;;;;;4983965;28;25105;-73
2022/02/17 11:59:23;;;;;;;20.25;4.55;;;12.10;88.00;;;;;;4982949;28;25063;-75
2022/02/17 12:01:50;;;;;;;28.13;4.72;;;12.10;87.10;;;;;;4984321;28;25091;-69
2022/02/17 12:04:23;;;;;;;21.60;4.88;;;11.90;87.20;;;;;;4984126;28;25110;-74
2022/02/17 12:06:57;;;;;;;20.48;5.05;;;11.70;87.50;;;;;;4985558;28;25141;-71
2022/02/17 12:09:39;;;;;;;33.42;5.18;;;11.50;89.00;;;;;;4985766;28;25076;-69
2022/02/17 12:12:20;;;;;;;20.42;4.55;;;11.50;89.00;;;;;;4984642;28;25056;-74
2022/02/17 12:14:49;;;;;;;25.35;4.68;;;11.40;89.10;;;;;;4985179;28;25063;-70
2022/02/17 12:17:15;;;;;;;32.40;5.30;;;11.40;90.20;;;;;;4967033;28;25111;-73
2022/02/17 12:19:41;;;;;;;27.73;5.60;;;11.40;90.20;;;;;;4984252;28;25162;-71
2022/02/17 12:22:07;;;;;;;27.55;5.57;;;11.80;88.20;;;;;;4982696;28;25112;-72
2022/02/17 12:24:34;;;;;;;27.60;6.45;;;11.30;89.30;;;;;;4983725;28;25140;-71
2022/02/17 12:26:59;;;;;;;22.65;4.95;;;11.70;90.00;;;;;;4984731;28;25152;-70
2022/02/17 12:29:32;;;;;;;25.88;5.07;;;12.00;87.60;;;;;;4982085;28;25153;-70
2022/02/17 12:31:58;;;;;;;;;;;11.90;89.30;;;;;;4985861;28;25104;-71
2022/02/17 12:34:25;;;;;;;23.02;4.50;;;11.90;86.30;;;;;;5002835;28;25119;-71
2022/02/17 12:36:51;;;;;;;19.00;4.68;;;12.00;85.60;;;;;;5003059;28;25063;-70
2022/02/17 12:39:16;;;;;;;24.33;3.83;;;11.60;85.60;;;;;;5003459;28;25134;-72
2022/02/17 12:42:10;;;;;;;18.23;3.95;;;11.60;86.40;;;;;;5006328;28;25074;-69
2022/02/17 12:44:39;;;;;;;20.20;4.22;;;11.70;85.50;;;;;;5023548;28;25078;-70
2022/02/17 12:47:10;;;;;;;21.88;4.32;;;11.30;86.20;;;;;;5006247;28;25073;-70